Helena, Montana
Current Conditions -  °F | °C
As of 1:53 PM on Thursday 23 Oct 2014 (Local Time) from KHLN Reporting Station
Clear Clear  
Wind Chill: 66°   Ceiling: Unl
Heat Index: 66°   Visibility: 10mi
Dew Point: 35°   Wind: 9mph
Humidity: 32%   Direction: 210°SSW
Pressure: 29.87"   Gusts: NA
Location:  46.59°N, 112.02°W
Report Text: KHLN 231953Z 21008KT 10SM CLR 19/02 A2987 RMK AO2 SLP110 T01890017
Loading
Personal Weather Stations






























Interactive Weather Map New forecast layout! Learn more

10-Day Weather Forecast

Advertisements
Track Severe Weather on mobile